sensor_id;sensor_type;location;lat;lon;timestamp;temperature;humidity
6102;DHT22;3081;50.584;7.032;2023-09-08T00:00:23;19.30;99.90
6102;DHT22;3081;50.584;7.032;2023-09-08T00:02:50;19.10;99.90
6102;DHT22;3081;50.584;7.032;2023-09-08T00:05:17;19.00;99.90
6102;DHT22;3081;50.584;7.032;2023-09-08T00:07:44;18.90;99.90
6102;DHT22;3081;50.584;7.032;2023-09-08T00:10:12;18.80;99.90
6102;DHT22;3081;50.584;7.032;2023-09-08T00:12:39;18.80;99.90
6102;DHT22;3081;50.584;7.032;2023-09-08T00:15:07;18.80;99.90
6102;DHT22;3081;50.584;7.032;2023-09-08T00:17:34;18.80;99.90
6102;DHT22;3081;50.584;7.032;2023-09-08T00:20:02;18.80;99.90
6102;DHT22;3081;50.584;7.032;2023-09-08T00:22:34;18.90;99.90
6102;DHT22;3081;50.584;7.032;2023-09-08T00:25:00;18.80;99.90
6102;DHT22;3081;50.584;7.032;2023-09-08T00:27:29;18.90;99.90
6102;DHT22;3081;50.584;7.032;2023-09-08T00:29:56;18.90;99.90
6102;DHT22;3081;50.584;7.032;2023-09-08T00:32:23;18.90;99.90
6102;DHT22;3081;50.584;7.032;2023-09-08T00:34:50;18.90;99.90
6102;DHT22;3081;50.584;7.032;2023-09-08T00:37:17;18.90;99.90
6102;DHT22;3081;50.584;7.032;2023-09-08T00:39:44;18.90;99.90
6102;DHT22;3081;50.584;7.032;2023-09-08T00:42:11;19.00;99.90
6102;DHT22;3081;50.584;7.032;2023-09-08T00:50:58;19.00;99.90
6102;DHT22;3081;50.584;7.032;2023-09-08T00:53:25;19.10;99.90
6102;DHT22;3081;50.584;7.032;2023-09-08T00:55:52;19.10;99.90
6102;DHT22;3081;50.584;7.032;2023-09-08T00:58:20;19.10;99.90
6102;DHT22;3081;50.584;7.032;2023-09-08T01:00:47;19.00;99.90
6102;DHT22;3081;50.584;7.032;2023-09-08T01:03:14;18.90;99.90
6102;DHT22;3081;50.584;7.032;2023-09-08T01:05:41;18.90;99.90
6102;DHT22;3081;50.584;7.032;2023-09-08T01:08:10;18.90;99.90
6102;DHT22;3081;50.584;7.032;2023-09-08T01:10:37;18.90;99.90
6102;DHT22;3081;50.584;7.032;2023-09-08T01:13:04;18.90;99.90
6102;DHT22;3081;50.584;7.032;2023-09-08T01:15:31;18.90;99.90
6102;DHT22;3081;50.584;7.032;2023-09-08T01:17:58;18.90;99.90
6102;DHT22;3081;50.584;7.032;2023-09-08T01:20:27;18.90;99.90
6102;DHT22;3081;50.584;7.032;2023-09-08T01:23:17;18.90;99.90
6102;DHT22;3081;50.584;7.032;2023-09-08T01:25:50;18.90;99.90
6102;DHT22;3081;50.584;7.032;2023-09-08T01:28:19;18.80;99.90
6102;DHT22;3081;50.584;7.032;2023-09-08T01:30:47;18.70;99.90
6102;DHT22;3081;50.584;7.032;2023-09-08T01:33:15;18.70;99.90
6102;DHT22;3081;50.584;7.032;2023-09-08T01:35:43;18.60;99.90
6102;DHT22;3081;50.584;7.032;2023-09-08T01:38:10;18.50;99.90
6102;DHT22;3081;50.584;7.032;2023-09-08T01:40:37;18.50;99.90
6102;DHT22;3081;50.584;7.032;2023-09-08T01:43:05;18.40;99.90
6102;DHT22;3081;50.584;7.032;2023-09-08T01:45:32;18.40;99.90
6102;DHT22;3081;50.584;7.032;2023-09-08T01:47:59;18.40;99.90
6102;DHT22;3081;50.584;7.032;2023-09-08T01:50:26;18.40;99.90
6102;DHT22;3081;50.584;7.032;2023-09-08T01:52:53;18.40;99.90
6102;DHT22;3081;50.584;7.032;2023-09-08T01:55:20;18.40;99.90
6102;DHT22;3081;50.584;7.032;2023-09-08T01:57:47;18.40;99.90
6102;DHT22;3081;50.584;7.032;2023-09-08T02:00:15;18.30;99.90
6102;DHT22;3081;50.584;7.032;2023-09-08T02:02:42;18.30;99.90
6102;DHT22;3081;50.584;7.032;2023-09-08T02:05:09;18.20;99.90
6102;DHT22;3081;50.584;7.032;2023-09-08T02:07:36;18.10;99.90
6102;DHT22;3081;50.584;7.032;2023-09-08T02:10:03;18.10;99.90
6102;DHT22;3081;50.584;7.032;2023-09-08T02:12:30;18.10;99.90
6102;DHT22;3081;50.584;7.032;2023-09-08T02:14:57;18.10;99.90
6102;DHT22;3081;50.584;7.032;2023-09-08T02:17:26;18.10;99.90
6102;DHT22;3081;50.584;7.032;2023-09-08T02:19:53;18.10;99.90
6102;DHT22;3081;50.584;7.032;2023-09-08T02:22:20;18.10;99.90
6102;DHT22;3081;50.584;7.032;2023-09-08T02:24:47;17.90;99.90
6102;DHT22;3081;50.584;7.032;2023-09-08T02:27:14;17.70;99.90
6102;DHT22;3081;50.584;7.032;2023-09-08T02:29:41;17.60;99.90
6102;DHT22;3081;50.584;7.032;2023-09-08T02:32:08;17.60;99.90
6102;DHT22;3081;50.584;7.032;2023-09-08T02:34:36;17.60;99.90
6102;DHT22;3081;50.584;7.032;2023-09-08T02:37:03;17.70;99.90
6102;DHT22;3081;50.584;7.032;2023-09-08T02:39:31;17.70;99.90
6102;DHT22;3081;50.584;7.032;2023-09-08T02:41:58;17.70;99.90
6102;DHT22;3081;50.584;7.032;2023-09-08T02:44:25;17.60;99.90
6102;DHT22;3081;50.584;7.032;2023-09-08T02:46:53;17.40;99.90
6102;DHT22;3081;50.584;7.032;2023-09-08T02:49:19;17.40;99.90
6102;DHT22;3081;50.584;7.032;2023-09-08T02:51:48;17.30;99.90
6102;DHT22;3081;50.584;7.032;2023-09-08T02:54:15;17.30;99.90
6102;DHT22;3081;50.584;7.032;2023-09-08T02:56:41;17.30;99.90
6102;DHT22;3081;50.584;7.032;2023-09-08T02:59:08;17.30;99.90
6102;DHT22;3081;50.584;7.032;2023-09-08T03:01:35;17.30;99.90
6102;DHT22;3081;50.584;7.032;2023-09-08T03:04:02;17.20;99.90
6102;DHT22;3081;50.584;7.032;2023-09-08T03:06:29;17.20;99.90
6102;DHT22;3081;50.584;7.032;2023-09-08T03:08:58;17.20;99.90
6102;DHT22;3081;50.584;7.032;2023-09-08T03:11:25;17.20;99.90
6102;DHT22;3081;50.584;7.032;2023-09-08T03:13:52;17.20;99.90
6102;DHT22;3081;50.584;7.032;2023-09-08T03:16:19;17.20;99.90
6102;DHT22;3081;50.584;7.032;2023-09-08T03:18:46;17.30;99.90
6102;DHT22;3081;50.584;7.032;2023-09-08T03:21:14;17.30;99.90
6102;DHT22;3081;50.584;7.032;2023-09-08T03:23:42;17.30;99.90
6102;DHT22;3081;50.584;7.032;2023-09-08T03:26:10;17.40;99.90
6102;DHT22;3081;50.584;7.032;2023-09-08T03:28:38;17.30;99.90
6102;DHT22;3081;50.584;7.032;2023-09-08T03:31:05;17.30;99.90
6102;DHT22;3081;50.584;7.032;2023-09-08T03:33:32;17.20;99.90
6102;DHT22;3081;50.584;7.032;2023-09-08T03:35:59;17.20;99.90
6102;DHT22;3081;50.584;7.032;2023-09-08T03:38:27;17.10;99.90
6102;DHT22;3081;50.584;7.032;2023-09-08T03:40:53;17.10;99.90
6102;DHT22;3081;50.584;7.032;2023-09-08T03:43:22;17.00;99.90
6102;DHT22;3081;50.584;7.032;2023-09-08T03:45:49;17.00;99.90
6102;DHT22;3081;50.584;7.032;2023-09-08T03:48:15;16.90;99.90
6102;DHT22;3081;50.584;7.032;2023-09-08T03:50:42;16.90;99.90
6102;DHT22;3081;50.584;7.032;2023-09-08T03:53:11;16.90;99.90
6102;DHT22;3081;50.584;7.032;2023-09-08T03:55:38;17.00;99.90
6102;DHT22;3081;50.584;7.032;2023-09-08T03:58:04;17.10;99.90
6102;DHT22;3081;50.584;7.032;2023-09-08T04:00:33;17.20;99.90
6102;DHT22;3081;50.584;7.032;2023-09-08T04:03:00;17.30;99.90
6102;DHT22;3081;50.584;7.032;2023-09-08T04:05:28;17.40;99.90
6102;DHT22;3081;50.584;7.032;2023-09-08T04:07:54;17.40;99.90
6102;DHT22;3081;50.584;7.032;2023-09-08T04:10:21;17.40;99.90
6102;DHT22;3081;50.584;7.032;2023-09-08T04:12:48;17.40;99.90
6102;DHT22;3081;50.584;7.032;2023-09-08T04:15:15;17.40;99.90
6102;DHT22;3081;50.584;7.032;2023-09-08T04:17:43;17.40;99.90
6102;DHT22;3081;50.584;7.032;2023-09-08T04:20:12;17.40;99.90
6102;DHT22;3081;50.584;7.032;2023-09-08T04:22:40;17.40;99.90
6102;DHT22;3081;50.584;7.032;2023-09-08T04:25:07;17.40;99.90
6102;DHT22;3081;50.584;7.032;2023-09-08T04:27:35;17.50;99.90
6102;DHT22;3081;50.584;7.032;2023-09-08T04:30:02;17.50;99.90
6102;DHT22;3081;50.584;7.032;2023-09-08T04:32:29;17.60;99.90
6102;DHT22;3081;50.584;7.032;2023-09-08T04:34:58;17.70;99.90
6102;DHT22;3081;50.584;7.032;2023-09-08T04:37:25;17.60;99.90
6102;DHT22;3081;50.584;7.032;2023-09-08T04:39:52;17.60;99.90
6102;DHT22;3081;50.584;7.032;2023-09-08T04:42:18;17.60;99.90
6102;DHT22;3081;50.584;7.032;2023-09-08T04:44:45;17.60;99.90
6102;DHT22;3081;50.584;7.032;2023-09-08T04:47:12;17.60;99.90
6102;DHT22;3081;50.584;7.032;2023-09-08T04:49:39;17.70;99.90
6102;DHT22;3081;50.584;7.032;2023-09-08T04:52:07;17.60;99.90
6102;DHT22;3081;50.584;7.032;2023-09-08T04:54:36;17.60;99.90
6102;DHT22;3081;50.584;7.032;2023-09-08T04:57:03;17.60;99.90
6102;DHT22;3081;50.584;7.032;2023-09-08T04:59:30;17.60;99.90
6102;DHT22;3081;50.584;7.032;2023-09-08T05:01:58;17.60;99.90
6102;DHT22;3081;50.584;7.032;2023-09-08T05:04:25;17.50;99.90
6102;DHT22;3081;50.584;7.032;2023-09-08T05:06:52;17.40;99.90
6102;DHT22;3081;50.584;7.032;2023-09-08T05:09:20;17.30;99.90
6102;DHT22;3081;50.584;7.032;2023-09-08T05:11:47;17.20;99.90
6102;DHT22;3081;50.584;7.032;2023-09-08T05:14:14;17.20;99.90
6102;DHT22;3081;50.584;7.032;2023-09-08T05:16:40;17.20;99.90
6102;DHT22;3081;50.584;7.032;2023-09-08T05:19:12;17.30;99.90
6102;DHT22;3081;50.584;7.032;2023-09-08T05:21:39;17.30;99.90
6102;DHT22;3081;50.584;7.032;2023-09-08T05:24:07;17.40;99.90
6102;DHT22;3081;50.584;7.032;2023-09-08T05:26:36;17.50;99.90
6102;DHT22;3081;50.584;7.032;2023-09-08T05:29:04;17.50;99.90
6102;DHT22;3081;50.584;7.032;2023-09-08T05:31:31;17.60;99.90
6102;DHT22;3081;50.584;7.032;2023-09-08T05:33:58;17.60;99.90
6102;DHT22;3081;50.584;7.032;2023-09-08T05:36:25;17.70;99.90
6102;DHT22;3081;50.584;7.032;2023-09-08T05:38:52;17.80;99.90
6102;DHT22;3081;50.584;7.032;2023-09-08T05:41:19;17.80;99.90
6102;DHT22;3081;50.584;7.032;2023-09-08T05:43:47;17.90;99.90
6102;DHT22;3081;50.584;7.032;2023-09-08T05:46:14;17.90;99.90
6102;DHT22;3081;50.584;7.032;2023-09-08T05:48:41;17.90;99.90
6102;DHT22;3081;50.584;7.032;2023-09-08T05:51:09;18.00;99.90
6102;DHT22;3081;50.584;7.032;2023-09-08T05:53:36;18.10;99.90
6102;DHT22;3081;50.584;7.032;2023-09-08T05:56:05;18.20;99.90
6102;DHT22;3081;50.584;7.032;2023-09-08T05:58:32;18.40;99.90
6102;DHT22;3081;50.584;7.032;2023-09-08T06:01:01;18.40;99.90
6102;DHT22;3081;50.584;7.032;2023-09-08T06:03:28;18.50;99.90
6102;DHT22;3081;50.584;7.032;2023-09-08T06:05:55;18.60;99.90
6102;DHT22;3081;50.584;7.032;2023-09-08T06:08:22;18.60;99.90
6102;DHT22;3081;50.584;7.032;2023-09-08T06:10:50;18.70;99.90
6102;DHT22;3081;50.584;7.032;2023-09-08T06:13:17;18.80;99.90
6102;DHT22;3081;50.584;7.032;2023-09-08T06:15:44;18.90;99.90
6102;DHT22;3081;50.584;7.032;2023-09-08T06:18:12;18.90;99.90
6102;DHT22;3081;50.584;7.032;2023-09-08T06:20:44;18.90;99.90
6102;DHT22;3081;50.584;7.032;2023-09-08T06:23:11;18.90;99.90
6102;DHT22;3081;50.584;7.032;2023-09-08T06:25:38;18.80;99.90
6102;DHT22;3081;50.584;7.032;2023-09-08T06:28:05;18.70;99.90
6102;DHT22;3081;50.584;7.032;2023-09-08T06:30:32;18.60;99.90
6102;DHT22;3081;50.584;7.032;2023-09-08T06:32:59;18.40;99.90
6102;DHT22;3081;50.584;7.032;2023-09-08T06:35:27;18.30;99.90
6102;DHT22;3081;50.584;7.032;2023-09-08T06:37:54;18.40;99.90
6102;DHT22;3081;50.584;7.032;2023-09-08T06:40:23;18.40;99.90
6102;DHT22;3081;50.584;7.032;2023-09-08T06:42:50;18.50;99.90
6102;DHT22;3081;50.584;7.032;2023-09-08T06:45:17;18.50;99.90
6102;DHT22;3081;50.584;7.032;2023-09-08T06:47:44;18.60;99.90
6102;DHT22;3081;50.584;7.032;2023-09-08T06:50:11;18.70;99.90
6102;DHT22;3081;50.584;7.032;2023-09-08T06:52:40;18.80;99.90
6102;DHT22;3081;50.584;7.032;2023-09-08T06:55:07;18.90;99.90
6102;DHT22;3081;50.584;7.032;2023-09-08T06:57:35;19.00;99.90
6102;DHT22;3081;50.584;7.032;2023-09-08T07:00:02;19.10;99.90
6102;DHT22;3081;50.584;7.032;2023-09-08T07:02:32;19.30;99.90
6102;DHT22;3081;50.584;7.032;2023-09-08T07:04:59;19.50;99.90
6102;DHT22;3081;50.584;7.032;2023-09-08T07:07:32;19.60;99.90
6102;DHT22;3081;50.584;7.032;2023-09-08T07:10:00;19.70;99.90
6102;DHT22;3081;50.584;7.032;2023-09-08T07:12:27;19.80;99.90
6102;DHT22;3081;50.584;7.032;2023-09-08T07:14:54;20.00;99.90
6102;DHT22;3081;50.584;7.032;2023-09-08T07:17:21;20.10;99.90
6102;DHT22;3081;50.584;7.032;2023-09-08T07:19:48;20.20;99.90
6102;DHT22;3081;50.584;7.032;2023-09-08T07:22:15;20.40;99.90
6102;DHT22;3081;50.584;7.032;2023-09-08T07:24:42;20.50;99.90
6102;DHT22;3081;50.584;7.032;2023-09-08T07:27:11;20.60;99.90
6102;DHT22;3081;50.584;7.032;2023-09-08T07:29:39;20.60;99.90
6102;DHT22;3081;50.584;7.032;2023-09-08T07:32:06;20.70;99.90
6102;DHT22;3081;50.584;7.032;2023-09-08T07:34:33;20.70;99.90
6102;DHT22;3081;50.584;7.032;2023-09-08T07:37:03;20.70;99.90
6102;DHT22;3081;50.584;7.032;2023-09-08T07:39:30;20.70;99.90
6102;DHT22;3081;50.584;7.032;2023-09-08T07:41:58;20.80;99.90
6102;DHT22;3081;50.584;7.032;2023-09-08T07:44:27;20.90;99.90
6102;DHT22;3081;50.584;7.032;2023-09-08T07:46:54;21.10;99.90
6102;DHT22;3081;50.584;7.032;2023-09-08T07:49:23;21.20;99.90
6102;DHT22;3081;50.584;7.032;2023-09-08T07:51:50;21.20;99.90
6102;DHT22;3081;50.584;7.032;2023-09-08T07:54:16;21.30;99.90
6102;DHT22;3081;50.584;7.032;2023-09-08T07:56:43;21.50;99.90
6102;DHT22;3081;50.584;7.032;2023-09-08T07:59:10;21.60;99.90
6102;DHT22;3081;50.584;7.032;2023-09-08T08:01:38;21.70;99.90
6102;DHT22;3081;50.584;7.032;2023-09-08T08:04:05;21.90;99.90
6102;DHT22;3081;50.584;7.032;2023-09-08T08:06:32;22.00;99.90
6102;DHT22;3081;50.584;7.032;2023-09-08T08:08:59;22.10;99.90
6102;DHT22;3081;50.584;7.032;2023-09-08T08:11:26;22.20;99.90
6102;DHT22;3081;50.584;7.032;2023-09-08T08:13:53;22.30;99.90
6102;DHT22;3081;50.584;7.032;2023-09-08T08:16:22;22.40;99.90
6102;DHT22;3081;50.584;7.032;2023-09-08T08:18:50;22.60;99.90
6102;DHT22;3081;50.584;7.032;2023-09-08T08:21:17;22.80;99.90
6102;DHT22;3081;50.584;7.032;2023-09-08T08:23:44;22.90;99.90
6102;DHT22;3081;50.584;7.032;2023-09-08T08:26:11;23.00;99.90
6102;DHT22;3081;50.584;7.032;2023-09-08T08:28:38;23.00;99.90
6102;DHT22;3081;50.584;7.032;2023-09-08T08:31:04;23.20;99.90
6102;DHT22;3081;50.584;7.032;2023-09-08T08:33:32;23.40;99.90
6102;DHT22;3081;50.584;7.032;2023-09-08T08:36:00;23.50;99.90
6102;DHT22;3081;50.584;7.032;2023-09-08T08:38:27;23.80;99.90
6102;DHT22;3081;50.584;7.032;2023-09-08T08:40:54;24.30;99.90
6102;DHT22;3081;50.584;7.032;2023-09-08T08:43:21;25.00;99.90
6102;DHT22;3081;50.584;7.032;2023-09-08T08:45:50;26.10;99.90
6102;DHT22;3081;50.584;7.032;2023-09-08T08:48:18;27.60;99.90
6102;DHT22;3081;50.584;7.032;2023-09-08T08:50:47;29.00;99.90
6102;DHT22;3081;50.584;7.032;2023-09-08T08:53:17;30.20;98.40
6102;DHT22;3081;50.584;7.032;2023-09-08T08:55:46;30.90;95.70
6102;DHT22;3081;50.584;7.032;2023-09-08T08:58:13;31.60;93.40
6102;DHT22;3081;50.584;7.032;2023-09-08T09:00:41;32.30;91.40
6102;DHT22;3081;50.584;7.032;2023-09-08T09:03:09;32.80;89.70
6102;DHT22;3081;50.584;7.032;2023-09-08T09:05:36;33.30;86.60
6102;DHT22;3081;50.584;7.032;2023-09-08T09:08:05;33.60;83.40
6102;DHT22;3081;50.584;7.032;2023-09-08T09:10:33;34.00;81.50
6102;DHT22;3081;50.584;7.032;2023-09-08T09:13:00;34.20;79.00
6102;DHT22;3081;50.584;7.032;2023-09-08T09:15:29;34.50;77.50
6102;DHT22;3081;50.584;7.032;2023-09-08T09:18:02;34.70;75.80
6102;DHT22;3081;50.584;7.032;2023-09-08T09:20:30;35.10;74.40
6102;DHT22;3081;50.584;7.032;2023-09-08T09:22:57;35.50;72.20
6102;DHT22;3081;50.584;7.032;2023-09-08T09:25:24;35.70;71.20
6102;DHT22;3081;50.584;7.032;2023-09-08T09:27:54;36.10;69.40
6102;DHT22;3081;50.584;7.032;2023-09-08T09:30:22;36.20;69.30
6102;DHT22;3081;50.584;7.032;2023-09-08T09:33:01;35.90;67.70
6102;DHT22;3081;50.584;7.032;2023-09-08T09:35:42;35.80;67.60
6102;DHT22;3081;50.584;7.032;2023-09-08T09:38:11;35.90;67.20
6102;DHT22;3081;50.584;7.032;2023-09-08T09:40:38;36.40;67.60
6102;DHT22;3081;50.584;7.032;2023-09-08T09:43:07;37.00;64.20
6102;DHT22;3081;50.584;7.032;2023-09-08T09:45:34;37.30;64.50
6102;DHT22;3081;50.584;7.032;2023-09-08T09:48:02;37.60;62.00
6102;DHT22;3081;50.584;7.032;2023-09-08T09:50:30;37.30;62.60
6102;DHT22;3081;50.584;7.032;2023-09-08T09:53:00;37.30;62.60
6102;DHT22;3081;50.584;7.032;2023-09-08T09:55:27;37.50;62.60
6102;DHT22;3081;50.584;7.032;2023-09-08T09:57:57;38.00;61.60
6102;DHT22;3081;50.584;7.032;2023-09-08T10:00:27;38.30;60.00
6102;DHT22;3081;50.584;7.032;2023-09-08T10:02:55;38.50;59.60
6102;DHT22;3081;50.584;7.032;2023-09-08T10:05:23;38.70;58.90
6102;DHT22;3081;50.584;7.032;2023-09-08T10:07:51;38.90;58.40
6102;DHT22;3081;50.584;7.032;2023-09-08T10:10:18;39.20;58.10
6102;DHT22;3081;50.584;7.032;2023-09-08T10:12:51;39.30;57.20
6102;DHT22;3081;50.584;7.032;2023-09-08T10:15:21;39.40;57.00
6102;DHT22;3081;50.584;7.032;2023-09-08T10:17:53;39.50;56.90
6102;DHT22;3081;50.584;7.032;2023-09-08T10:20:23;39.50;56.40
6102;DHT22;3081;50.584;7.032;2023-09-08T10:22:54;39.40;56.30
6102;DHT22;3081;50.584;7.032;2023-09-08T10:25:24;39.60;56.10
6102;DHT22;3081;50.584;7.032;2023-09-08T10:27:53;40.10;55.40
6102;DHT22;3081;50.584;7.032;2023-09-08T10:30:21;40.00;54.40
6102;DHT22;3081;50.584;7.032;2023-09-08T10:32:50;39.50;55.40
6102;DHT22;3081;50.584;7.032;2023-09-08T10:35:18;39.70;55.80
6102;DHT22;3081;50.584;7.032;2023-09-08T10:37:45;40.30;54.60
6102;DHT22;3081;50.584;7.032;2023-09-08T10:40:21;40.70;54.10
6102;DHT22;3081;50.584;7.032;2023-09-08T10:42:48;41.00;53.20
6102;DHT22;3081;50.584;7.032;2023-09-08T10:45:17;41.30;53.10
6102;DHT22;3081;50.584;7.032;2023-09-08T10:47:58;41.60;52.70
6102;DHT22;3081;50.584;7.032;2023-09-08T10:50:33;41.80;51.80
6102;DHT22;3081;50.584;7.032;2023-09-08T10:53:07;41.70;51.80
6102;DHT22;3081;50.584;7.032;2023-09-08T10:55:39;41.70;51.80
6102;DHT22;3081;50.584;7.032;2023-09-08T10:58:06;41.50;51.90
6102;DHT22;3081;50.584;7.032;2023-09-08T11:00:46;41.40;52.10
6102;DHT22;3081;50.584;7.032;2023-09-08T11:03:26;41.70;52.10
6102;DHT22;3081;50.584;7.032;2023-09-08T11:05:53;41.90;51.20
6102;DHT22;3081;50.584;7.032;2023-09-08T11:08:21;42.20;51.20
6102;DHT22;3081;50.584;7.032;2023-09-08T11:10:49;42.30;50.80
6102;DHT22;3081;50.584;7.032;2023-09-08T11:13:16;42.30;51.10
6102;DHT22;3081;50.584;7.032;2023-09-08T11:15:43;42.40;50.50
6102;DHT22;3081;50.584;7.032;2023-09-08T11:18:10;42.50;50.50
6102;DHT22;3081;50.584;7.032;2023-09-08T11:20:38;42.60;50.40
6102;DHT22;3081;50.584;7.032;2023-09-08T11:23:05;42.80;50.20
6102;DHT22;3081;50.584;7.032;2023-09-08T11:25:33;42.70;49.90
6102;DHT22;3081;50.584;7.032;2023-09-08T11:28:01;42.50;50.70
6102;DHT22;3081;50.584;7.032;2023-09-08T11:30:28;42.70;50.40
6102;DHT22;3081;50.584;7.032;2023-09-08T11:32:55;42.60;50.80
6102;DHT22;3081;50.584;7.032;2023-09-08T11:35:27;42.60;50.60
6102;DHT22;3081;50.584;7.032;2023-09-08T11:37:59;42.60;50.20
6102;DHT22;3081;50.584;7.032;2023-09-08T11:40:27;42.60;49.90
6102;DHT22;3081;50.584;7.032;2023-09-08T11:42:54;42.70;50.20
6102;DHT22;3081;50.584;7.032;2023-09-08T11:45:21;42.80;49.90
6102;DHT22;3081;50.584;7.032;2023-09-08T11:47:49;43.00;49.60
6102;DHT22;3081;50.584;7.032;2023-09-08T11:50:18;43.20;49.10
6102;DHT22;3081;50.584;7.032;2023-09-08T11:52:47;43.00;49.50
6102;DHT22;3081;50.584;7.032;2023-09-08T11:55:16;42.60;49.90
6102;DHT22;3081;50.584;7.032;2023-09-08T11:57:46;42.70;50.20
6102;DHT22;3081;50.584;7.032;2023-09-08T12:00:15;42.80;50.20
6102;DHT22;3081;50.584;7.032;2023-09-08T12:02:44;43.00;50.00
6102;DHT22;3081;50.584;7.032;2023-09-08T12:05:12;43.30;50.00
6102;DHT22;3081;50.584;7.032;2023-09-08T12:07:39;43.40;49.50
6102;DHT22;3081;50.584;7.032;2023-09-08T12:10:09;43.60;49.50
6102;DHT22;3081;50.584;7.032;2023-09-08T12:12:43;43.70;49.50
6102;DHT22;3081;50.584;7.032;2023-09-08T12:15:10;43.90;49.50
6102;DHT22;3081;50.584;7.032;2023-09-08T12:17:47;44.00;49.00
6102;DHT22;3081;50.584;7.032;2023-09-08T12:20:15;44.30;48.70
6102;DHT22;3081;50.584;7.032;2023-09-08T12:22:48;44.10;48.40
6102;DHT22;3081;50.584;7.032;2023-09-08T12:25:15;44.00;48.80
6102;DHT22;3081;50.584;7.032;2023-09-08T12:27:45;44.20;48.30
6102;DHT22;3081;50.584;7.032;2023-09-08T12:30:17;44.30;48.70
6102;DHT22;3081;50.584;7.032;2023-09-08T12:32:47;44.50;48.40
6102;DHT22;3081;50.584;7.032;2023-09-08T12:35:20;44.50;48.40
6102;DHT22;3081;50.584;7.032;2023-09-08T12:37:51;44.50;48.20
6102;DHT22;3081;50.584;7.032;2023-09-08T12:40:18;44.50;48.20
6102;DHT22;3081;50.584;7.032;2023-09-08T12:42:46;44.60;48.10
6102;DHT22;3081;50.584;7.032;2023-09-08T12:45:14;44.50;48.20
6102;DHT22;3081;50.584;7.032;2023-09-08T12:47:40;44.30;48.30
6102;DHT22;3081;50.584;7.032;2023-09-08T12:50:08;44.30;48.50
6102;DHT22;3081;50.584;7.032;2023-09-08T12:52:35;44.50;48.00
6102;DHT22;3081;50.584;7.032;2023-09-08T12:55:02;44.30;48.20
6102;DHT22;3081;50.584;7.032;2023-09-08T12:57:29;44.50;48.00
6102;DHT22;3081;50.584;7.032;2023-09-08T12:59:58;44.30;48.00
6102;DHT22;3081;50.584;7.032;2023-09-08T13:02:24;44.10;48.40
6102;DHT22;3081;50.584;7.032;2023-09-08T13:04:51;44.30;48.20
6102;DHT22;3081;50.584;7.032;2023-09-08T13:07:20;44.50;47.70
6102;DHT22;3081;50.584;7.032;2023-09-08T13:09:47;44.70;47.40
6102;DHT22;3081;50.584;7.032;2023-09-08T13:12:14;45.10;47.40
6102;DHT22;3081;50.584;7.032;2023-09-08T13:14:41;45.30;47.40
6102;DHT22;3081;50.584;7.032;2023-09-08T13:17:10;45.70;46.60
6102;DHT22;3081;50.584;7.032;2023-09-08T13:19:37;45.90;46.60
6102;DHT22;3081;50.584;7.032;2023-09-08T13:22:05;46.20;46.30
6102;DHT22;3081;50.584;7.032;2023-09-08T13:24:32;46.40;46.00
6102;DHT22;3081;50.584;7.032;2023-09-08T13:26:59;46.60;46.10
6102;DHT22;3081;50.584;7.032;2023-09-08T13:29:26;46.60;45.90
6102;DHT22;3081;50.584;7.032;2023-09-08T13:31:53;46.80;45.80
6102;DHT22;3081;50.584;7.032;2023-09-08T13:34:22;47.00;45.10
6102;DHT22;3081;50.584;7.032;2023-09-08T13:36:49;47.40;45.00
6102;DHT22;3081;50.584;7.032;2023-09-08T13:39:15;47.70;44.40
6102;DHT22;3081;50.584;7.032;2023-09-08T13:41:50;48.00;44.40
6102;DHT22;3081;50.584;7.032;2023-09-08T13:44:18;48.20;44.10
6102;DHT22;3081;50.584;7.032;2023-09-08T13:46:46;48.50;43.70
6102;DHT22;3081;50.584;7.032;2023-09-08T13:49:13;48.60;43.40
6102;DHT22;3081;50.584;7.032;2023-09-08T13:51:42;48.50;43.30
6102;DHT22;3081;50.584;7.032;2023-09-08T13:54:09;48.40;43.30
6102;DHT22;3081;50.584;7.032;2023-09-08T13:56:39;48.60;43.50
6102;DHT22;3081;50.584;7.032;2023-09-08T13:59:06;48.70;43.30
6102;DHT22;3081;50.584;7.032;2023-09-08T14:01:34;49.20;42.50
6102;DHT22;3081;50.584;7.032;2023-09-08T14:04:01;49.40;42.50
6102;DHT22;3081;50.584;7.032;2023-09-08T14:06:28;49.60;42.40
6102;DHT22;3081;50.584;7.032;2023-09-08T14:08:57;49.90;41.80
6102;DHT22;3081;50.584;7.032;2023-09-08T14:11:24;50.20;41.60
6102;DHT22;3081;50.584;7.032;2023-09-08T14:13:51;50.60;41.40
6102;DHT22;3081;50.584;7.032;2023-09-08T14:16:18;50.60;41.30
6102;DHT22;3081;50.584;7.032;2023-09-08T14:18:45;50.60;41.20
6102;DHT22;3081;50.584;7.032;2023-09-08T14:21:12;50.90;40.70
6102;DHT22;3081;50.584;7.032;2023-09-08T14:23:39;51.50;40.60
6102;DHT22;3081;50.584;7.032;2023-09-08T14:26:08;51.90;39.80
6102;DHT22;3081;50.584;7.032;2023-09-08T14:28:35;52.10;39.60
6102;DHT22;3081;50.584;7.032;2023-09-08T14:31:02;52.20;39.30
6102;DHT22;3081;50.584;7.032;2023-09-08T14:33:29;52.00;39.50
6102;DHT22;3081;50.584;7.032;2023-09-08T14:35:57;51.80;39.70
6102;DHT22;3081;50.584;7.032;2023-09-08T14:38:25;52.00;39.20
6102;DHT22;3081;50.584;7.032;2023-09-08T14:40:57;52.40;38.90
6102;DHT22;3081;50.584;7.032;2023-09-08T14:43:27;52.60;38.80
6102;DHT22;3081;50.584;7.032;2023-09-08T14:45:55;52.90;38.30
6102;DHT22;3081;50.584;7.032;2023-09-08T14:48:23;53.10;38.30
6102;DHT22;3081;50.584;7.032;2023-09-08T14:50:56;53.10;38.30
6102;DHT22;3081;50.584;7.032;2023-09-08T14:53:24;53.00;38.10
6102;DHT22;3081;50.584;7.032;2023-09-08T14:55:51;53.00;38.10
6102;DHT22;3081;50.584;7.032;2023-09-08T14:58:21;52.90;38.20
6102;DHT22;3081;50.584;7.032;2023-09-08T15:00:50;52.70;38.20
6102;DHT22;3081;50.584;7.032;2023-09-08T15:03:19;53.10;38.00
6102;DHT22;3081;50.584;7.032;2023-09-08T15:05:46;53.70;37.60
6102;DHT22;3081;50.584;7.032;2023-09-08T15:08:14;54.10;37.40
6102;DHT22;3081;50.584;7.032;2023-09-08T15:10:41;54.30;36.80
6102;DHT22;3081;50.584;7.032;2023-09-08T15:13:08;54.30;37.00
6102;DHT22;3081;50.584;7.032;2023-09-08T15:15:36;54.70;36.80
6102;DHT22;3081;50.584;7.032;2023-09-08T15:18:04;55.00;36.40
6102;DHT22;3081;50.584;7.032;2023-09-08T15:20:31;55.00;36.20
6102;DHT22;3081;50.584;7.032;2023-09-08T15:22:58;55.20;36.20
6102;DHT22;3081;50.584;7.032;2023-09-08T15:25:25;55.50;36.10
6102;DHT22;3081;50.584;7.032;2023-09-08T15:27:54;55.80;35.90
6102;DHT22;3081;50.584;7.032;2023-09-08T15:30:21;56.10;35.50
6102;DHT22;3081;50.584;7.032;2023-09-08T15:32:48;55.70;35.50
6102;DHT22;3081;50.584;7.032;2023-09-08T15:35:17;55.30;35.30
6102;DHT22;3081;50.584;7.032;2023-09-08T15:37:44;55.20;35.50
6102;DHT22;3081;50.584;7.032;2023-09-08T15:40:11;55.00;35.30
6102;DHT22;3081;50.584;7.032;2023-09-08T15:42:40;54.90;35.70
6102;DHT22;3081;50.584;7.032;2023-09-08T15:45:07;55.30;35.80
6102;DHT22;3081;50.584;7.032;2023-09-08T15:47:35;55.60;35.50
6102;DHT22;3081;50.584;7.032;2023-09-08T15:50:02;56.00;35.20
6102;DHT22;3081;50.584;7.032;2023-09-08T15:52:34;56.20;34.90
6102;DHT22;3081;50.584;7.032;2023-09-08T15:55:01;55.70;35.10
6102;DHT22;3081;50.584;7.032;2023-09-08T15:57:28;55.40;35.30
6102;DHT22;3081;50.584;7.032;2023-09-08T15:59:55;55.60;35.10
6102;DHT22;3081;50.584;7.032;2023-09-08T16:02:22;56.00;34.70
6102;DHT22;3081;50.584;7.032;2023-09-08T16:04:49;56.20;34.40
6102;DHT22;3081;50.584;7.032;2023-09-08T16:07:16;55.90;34.80
6102;DHT22;3081;50.584;7.032;2023-09-08T16:09:44;56.00;34.70
6102;DHT22;3081;50.584;7.032;2023-09-08T16:12:11;56.20;34.30